sensor_id;sensor_type;location;lat;lon;timestamp;P1;durP1;ratioP1;P2;durP2;ratioP2
28766;SDS011;15921;52.034;20.650;2023-03-03T00:02:22;172.52;;;55.75;;
28766;SDS011;15921;52.034;20.650;2023-03-03T00:04:47;167.48;;;55.20;;
28766;SDS011;15921;52.034;20.650;2023-03-03T00:07:13;166.43;;;53.00;;
28766;SDS011;15921;52.034;20.650;2023-03-03T00:09:45;153.40;;;52.17;;
28766;SDS011;15921;52.034;20.650;2023-03-03T00:12:27;175.10;;;53.67;;
28766;SDS011;15921;52.034;20.650;2023-03-03T00:14:54;157.35;;;53.92;;
28766;SDS011;15921;52.034;20.650;2023-03-03T00:17:24;155.05;;;53.50;;
28766;SDS011;15921;52.034;20.650;2023-03-03T00:19:52;168.38;;;53.53;;
28766;SDS011;15921;52.034;20.650;2023-03-03T00:25:32;149.65;;;50.95;;
28766;SDS011;15921;52.034;20.650;2023-03-03T00:30:47;154.73;;;51.53;;
28766;SDS011;15921;52.034;20.650;2023-03-03T00:36:42;147.05;;;50.67;;
28766;SDS011;15921;52.034;20.650;2023-03-03T00:39:10;158.73;;;52.13;;
28766;SDS011;15921;52.034;20.650;2023-03-03T00:41:58;150.05;;;50.50;;
28766;SDS011;15921;52.034;20.650;2023-03-03T00:49:47;154.65;;;51.72;;
28766;SDS011;15921;52.034;20.650;2023-03-03T00:52:13;163.23;;;53.17;;
28766;SDS011;15921;52.034;20.650;2023-03-03T00:54:41;162.88;;;54.08;;
28766;SDS011;15921;52.034;20.650;2023-03-03T00:57:07;159.35;;;52.50;;
28766;SDS011;15921;52.034;20.650;2023-03-03T00:59:33;145.13;;;51.15;;
28766;SDS011;15921;52.034;20.650;2023-03-03T01:01:59;162.48;;;52.65;;
28766;SDS011;15921;52.034;20.650;2023-03-03T01:04:24;141.25;;;47.97;;
28766;SDS011;15921;52.034;20.650;2023-03-03T01:06:50;149.25;;;47.92;;
28766;SDS011;15921;52.034;20.650;2023-03-03T01:09:16;148.48;;;48.17;;
28766;SDS011;15921;52.034;20.650;2023-03-03T01:11:42;154.15;;;50.22;;
28766;SDS011;15921;52.034;20.650;2023-03-03T01:14:08;144.07;;;49.78;;
28766;SDS011;15921;52.034;20.650;2023-03-03T01:16:33;158.98;;;51.63;;
28766;SDS011;15921;52.034;20.650;2023-03-03T01:18:59;153.23;;;50.67;;
28766;SDS011;15921;52.034;20.650;2023-03-03T01:21:25;154.00;;;51.38;;
28766;SDS011;15921;52.034;20.650;2023-03-03T01:23:51;152.40;;;48.97;;
28766;SDS011;15921;52.034;20.650;2023-03-03T01:26:16;154.00;;;47.80;;
28766;SDS011;15921;52.034;20.650;2023-03-03T01:28:42;145.07;;;49.40;;
28766;SDS011;15921;52.034;20.650;2023-03-03T01:31:08;139.02;;;47.15;;
28766;SDS011;15921;52.034;20.650;2023-03-03T01:33:34;154.80;;;49.95;;
28766;SDS011;15921;52.034;20.650;2023-03-03T01:36:00;154.82;;;51.80;;
28766;SDS011;15921;52.034;20.650;2023-03-03T01:38:27;156.07;;;50.38;;
28766;SDS011;15921;52.034;20.650;2023-03-03T01:40:54;144.48;;;49.15;;
28766;SDS011;15921;52.034;20.650;2023-03-03T01:43:21;145.38;;;50.65;;
28766;SDS011;15921;52.034;20.650;2023-03-03T01:48:17;151.75;;;49.83;;
28766;SDS011;15921;52.034;20.650;2023-03-03T01:51:01;135.73;;;45.83;;
28766;SDS011;15921;52.034;20.650;2023-03-03T01:53:35;156.70;;;49.33;;
28766;SDS011;15921;52.034;20.650;2023-03-03T01:56:12;140.30;;;48.10;;
28766;SDS011;15921;52.034;20.650;2023-03-03T01:58:42;152.27;;;49.30;;
28766;SDS011;15921;52.034;20.650;2023-03-03T02:01:14;147.05;;;49.17;;
28766;SDS011;15921;52.034;20.650;2023-03-03T02:03:43;139.10;;;48.95;;
28766;SDS011;15921;52.034;20.650;2023-03-03T02:06:10;153.95;;;49.60;;
28766;SDS011;15921;52.034;20.650;2023-03-03T02:08:44;137.18;;;46.50;;
28766;SDS011;15921;52.034;20.650;2023-03-03T02:11:18;153.43;;;51.03;;
28766;SDS011;15921;52.034;20.650;2023-03-03T02:13:45;156.02;;;50.00;;
28766;SDS011;15921;52.034;20.650;2023-03-03T02:16:11;138.30;;;47.55;;
28766;SDS011;15921;52.034;20.650;2023-03-03T02:18:37;145.32;;;48.45;;
28766;SDS011;15921;52.034;20.650;2023-03-03T02:21:08;149.23;;;50.83;;
28766;SDS011;15921;52.034;20.650;2023-03-03T02:23:58;152.30;;;51.42;;
28766;SDS011;15921;52.034;20.650;2023-03-03T02:26:40;160.95;;;51.90;;
28766;SDS011;15921;52.034;20.650;2023-03-03T02:29:07;150.90;;;49.40;;
28766;SDS011;15921;52.034;20.650;2023-03-03T02:31:34;144.93;;;48.20;;
28766;SDS011;15921;52.034;20.650;2023-03-03T02:33:59;135.20;;;45.00;;
28766;SDS011;15921;52.034;20.650;2023-03-03T02:36:26;136.50;;;47.33;;
28766;SDS011;15921;52.034;20.650;2023-03-03T02:44:29;143.32;;;45.80;;
28766;SDS011;15921;52.034;20.650;2023-03-03T02:46:56;135.05;;;47.60;;
28766;SDS011;15921;52.034;20.650;2023-03-03T02:49:24;133.50;;;46.50;;
28766;SDS011;15921;52.034;20.650;2023-03-03T02:51:51;122.88;;;43.95;;
28766;SDS011;15921;52.034;20.650;2023-03-03T02:54:18;136.82;;;48.05;;
28766;SDS011;15921;52.034;20.650;2023-03-03T02:56:45;146.00;;;50.17;;
28766;SDS011;15921;52.034;20.650;2023-03-03T02:59:11;147.05;;;48.55;;
28766;SDS011;15921;52.034;20.650;2023-03-03T03:01:37;138.15;;;47.80;;
28766;SDS011;15921;52.034;20.650;2023-03-03T03:04:13;157.02;;;51.97;;
28766;SDS011;15921;52.034;20.650;2023-03-03T03:06:44;150.02;;;47.58;;
28766;SDS011;15921;52.034;20.650;2023-03-03T03:09:10;155.15;;;48.53;;
28766;SDS011;15921;52.034;20.650;2023-03-03T03:11:38;150.00;;;50.22;;
28766;SDS011;15921;52.034;20.650;2023-03-03T03:14:04;138.25;;;45.70;;
28766;SDS011;15921;52.034;20.650;2023-03-03T03:16:31;130.13;;;45.63;;
28766;SDS011;15921;52.034;20.650;2023-03-03T03:18:58;138.23;;;46.78;;
28766;SDS011;15921;52.034;20.650;2023-03-03T03:21:24;145.45;;;47.35;;
28766;SDS011;15921;52.034;20.650;2023-03-03T03:23:50;143.68;;;47.13;;
28766;SDS011;15921;52.034;20.650;2023-03-03T03:26:16;147.60;;;47.58;;
28766;SDS011;15921;52.034;20.650;2023-03-03T03:28:42;153.52;;;49.03;;
28766;SDS011;15921;52.034;20.650;2023-03-03T03:31:08;136.60;;;46.83;;
28766;SDS011;15921;52.034;20.650;2023-03-03T03:33:34;133.10;;;48.00;;
28766;SDS011;15921;52.034;20.650;2023-03-03T03:36:00;145.68;;;45.58;;
28766;SDS011;15921;52.034;20.650;2023-03-03T03:38:27;153.65;;;49.13;;
28766;SDS011;15921;52.034;20.650;2023-03-03T03:40:54;149.63;;;49.70;;
28766;SDS011;15921;52.034;20.650;2023-03-03T03:43:20;153.52;;;50.20;;
28766;SDS011;15921;52.034;20.650;2023-03-03T03:45:46;163.93;;;51.20;;
28766;SDS011;15921;52.034;20.650;2023-03-03T03:48:12;162.00;;;53.08;;
28766;SDS011;15921;52.034;20.650;2023-03-03T03:50:38;151.02;;;50.47;;
28766;SDS011;15921;52.034;20.650;2023-03-03T03:53:04;156.50;;;50.58;;
28766;SDS011;15921;52.034;20.650;2023-03-03T03:55:31;159.30;;;50.72;;
28766;SDS011;15921;52.034;20.650;2023-03-03T03:57:57;165.73;;;53.40;;
28766;SDS011;15921;52.034;20.650;2023-03-03T04:00:22;165.32;;;53.17;;
28766;SDS011;15921;52.034;20.650;2023-03-03T04:02:49;174.65;;;56.22;;
28766;SDS011;15921;52.034;20.650;2023-03-03T04:05:15;177.25;;;52.30;;
28766;SDS011;15921;52.034;20.650;2023-03-03T04:07:41;160.93;;;53.20;;
28766;SDS011;15921;52.034;20.650;2023-03-03T04:10:07;162.05;;;53.13;;
28766;SDS011;15921;52.034;20.650;2023-03-03T04:12:33;154.25;;;53.00;;
28766;SDS011;15921;52.034;20.650;2023-03-03T04:15:09;173.25;;;54.28;;
28766;SDS011;15921;52.034;20.650;2023-03-03T04:17:37;162.50;;;51.33;;
28766;SDS011;15921;52.034;20.650;2023-03-03T04:20:03;158.13;;;51.88;;
28766;SDS011;15921;52.034;20.650;2023-03-03T04:22:30;154.20;;;51.50;;
28766;SDS011;15921;52.034;20.650;2023-03-03T04:24:58;153.18;;;50.58;;
28766;SDS011;15921;52.034;20.650;2023-03-03T04:27:24;151.35;;;50.88;;
28766;SDS011;15921;52.034;20.650;2023-03-03T04:29:50;156.80;;;50.67;;
28766;SDS011;15921;52.034;20.650;2023-03-03T04:32:16;150.73;;;48.85;;
28766;SDS011;15921;52.034;20.650;2023-03-03T04:34:43;157.85;;;50.15;;
28766;SDS011;15921;52.034;20.650;2023-03-03T04:37:08;154.35;;;49.95;;
28766;SDS011;15921;52.034;20.650;2023-03-03T04:39:34;154.05;;;48.90;;
28766;SDS011;15921;52.034;20.650;2023-03-03T04:42:00;165.10;;;51.67;;
28766;SDS011;15921;52.034;20.650;2023-03-03T04:44:25;166.27;;;51.58;;
28766;SDS011;15921;52.034;20.650;2023-03-03T04:46:51;156.95;;;51.53;;
28766;SDS011;15921;52.034;20.650;2023-03-03T04:49:17;166.32;;;51.95;;
28766;SDS011;15921;52.034;20.650;2023-03-03T04:51:43;165.63;;;51.90;;
28766;SDS011;15921;52.034;20.650;2023-03-03T04:54:08;165.68;;;52.13;;
28766;SDS011;15921;52.034;20.650;2023-03-03T04:56:34;158.50;;;51.42;;
28766;SDS011;15921;52.034;20.650;2023-03-03T04:59:00;154.68;;;49.10;;
28766;SDS011;15921;52.034;20.650;2023-03-03T05:01:25;169.63;;;49.63;;
28766;SDS011;15921;52.034;20.650;2023-03-03T05:03:51;153.00;;;50.25;;
28766;SDS011;15921;52.034;20.650;2023-03-03T05:06:17;154.10;;;49.67;;
28766;SDS011;15921;52.034;20.650;2023-03-03T05:08:43;144.77;;;48.65;;
28766;SDS011;15921;52.034;20.650;2023-03-03T05:11:09;153.35;;;50.40;;
28766;SDS011;15921;52.034;20.650;2023-03-03T05:13:35;161.73;;;52.92;;
28766;SDS011;15921;52.034;20.650;2023-03-03T05:16:01;161.68;;;53.10;;
28766;SDS011;15921;52.034;20.650;2023-03-03T05:18:26;152.20;;;49.95;;
28766;SDS011;15921;52.034;20.650;2023-03-03T05:20:52;171.88;;;52.40;;
28766;SDS011;15921;52.034;20.650;2023-03-03T05:23:18;174.45;;;52.97;;
28766;SDS011;15921;52.034;20.650;2023-03-03T05:25:48;193.75;;;54.35;;
28766;SDS011;15921;52.034;20.650;2023-03-03T05:28:14;183.55;;;53.20;;
28766;SDS011;15921;52.034;20.650;2023-03-03T05:30:40;168.05;;;55.25;;
28766;SDS011;15921;52.034;20.650;2023-03-03T05:33:06;173.20;;;53.88;;
28766;SDS011;15921;52.034;20.650;2023-03-03T05:35:32;208.13;;;59.65;;
28766;SDS011;15921;52.034;20.650;2023-03-03T05:37:58;185.13;;;55.45;;
28766;SDS011;15921;52.034;20.650;2023-03-03T05:40:24;205.30;;;56.97;;
28766;SDS011;15921;52.034;20.650;2023-03-03T05:42:51;201.93;;;55.92;;
28766;SDS011;15921;52.034;20.650;2023-03-03T05:45:18;223.40;;;58.30;;
28766;SDS011;15921;52.034;20.650;2023-03-03T05:47:45;213.80;;;60.33;;
28766;SDS011;15921;52.034;20.650;2023-03-03T05:50:11;206.23;;;55.95;;
28766;SDS011;15921;52.034;20.650;2023-03-03T05:52:38;223.30;;;54.58;;
28766;SDS011;15921;52.034;20.650;2023-03-03T05:55:03;205.10;;;56.60;;
28766;SDS011;15921;52.034;20.650;2023-03-03T05:57:30;200.52;;;54.13;;
28766;SDS011;15921;52.034;20.650;2023-03-03T05:59:55;224.73;;;53.67;;
28766;SDS011;15921;52.034;20.650;2023-03-03T06:02:21;214.65;;;51.60;;
28766;SDS011;15921;52.034;20.650;2023-03-03T06:04:47;189.27;;;52.25;;
28766;SDS011;15921;52.034;20.650;2023-03-03T06:07:13;184.15;;;49.25;;
28766;SDS011;15921;52.034;20.650;2023-03-03T06:09:38;182.82;;;49.78;;
28766;SDS011;15921;52.034;20.650;2023-03-03T06:12:04;202.95;;;47.55;;
28766;SDS011;15921;52.034;20.650;2023-03-03T06:14:30;178.00;;;47.83;;
28766;SDS011;15921;52.034;20.650;2023-03-03T06:16:55;162.40;;;44.95;;
28766;SDS011;15921;52.034;20.650;2023-03-03T06:19:22;183.82;;;47.35;;
28766;SDS011;15921;52.034;20.650;2023-03-03T06:21:48;210.65;;;43.80;;
28766;SDS011;15921;52.034;20.650;2023-03-03T06:24:13;239.52;;;47.47;;
28766;SDS011;15921;52.034;20.650;2023-03-03T06:26:39;191.77;;;46.95;;
28766;SDS011;15921;52.034;20.650;2023-03-03T06:29:05;215.52;;;47.15;;
28766;SDS011;15921;52.034;20.650;2023-03-03T06:31:31;188.52;;;47.22;;
28766;SDS011;15921;52.034;20.650;2023-03-03T06:33:56;223.27;;;47.03;;
28766;SDS011;15921;52.034;20.650;2023-03-03T06:36:23;187.20;;;46.72;;
28766;SDS011;15921;52.034;20.650;2023-03-03T06:38:49;216.93;;;49.67;;
28766;SDS011;15921;52.034;20.650;2023-03-03T06:41:15;237.90;;;49.22;;
28766;SDS011;15921;52.034;20.650;2023-03-03T06:43:41;203.43;;;49.58;;
28766;SDS011;15921;52.034;20.650;2023-03-03T06:46:07;187.80;;;46.28;;
28766;SDS011;15921;52.034;20.650;2023-03-03T06:48:33;220.13;;;47.17;;
28766;SDS011;15921;52.034;20.650;2023-03-03T06:50:59;181.82;;;46.83;;
28766;SDS011;15921;52.034;20.650;2023-03-03T06:53:27;212.25;;;48.13;;
28766;SDS011;15921;52.034;20.650;2023-03-03T06:55:57;194.65;;;46.33;;
28766;SDS011;15921;52.034;20.650;2023-03-03T06:58:22;189.82;;;45.88;;
28766;SDS011;15921;52.034;20.650;2023-03-03T07:00:53;190.57;;;47.10;;
28766;SDS011;15921;52.034;20.650;2023-03-03T07:03:22;192.55;;;48.42;;
28766;SDS011;15921;52.034;20.650;2023-03-03T07:05:49;184.93;;;47.75;;
28766;SDS011;15921;52.034;20.650;2023-03-03T07:08:20;190.10;;;45.83;;
28766;SDS011;15921;52.034;20.650;2023-03-03T07:10:48;194.20;;;48.97;;
28766;SDS011;15921;52.034;20.650;2023-03-03T07:15:48;203.85;;;51.05;;
28766;SDS011;15921;52.034;20.650;2023-03-03T07:18:38;204.82;;;50.42;;
28766;SDS011;15921;52.034;20.650;2023-03-03T07:23:57;190.38;;;47.58;;
28766;SDS011;15921;52.034;20.650;2023-03-03T07:26:29;181.77;;;46.60;;
28766;SDS011;15921;52.034;20.650;2023-03-03T07:31:46;171.05;;;46.70;;
28766;SDS011;15921;52.034;20.650;2023-03-03T07:39:56;162.00;;;42.92;;
28766;SDS011;15921;52.034;20.650;2023-03-03T07:44:43;164.83;;;48.80;;
28766;SDS011;15921;52.034;20.650;2023-03-03T07:47:25;162.10;;;43.97;;
28766;SDS011;15921;52.034;20.650;2023-03-03T07:49:54;141.80;;;43.30;;
28766;SDS011;15921;52.034;20.650;2023-03-03T07:52:40;136.48;;;42.33;;
28766;SDS011;15921;52.034;20.650;2023-03-03T07:55:31;144.95;;;42.42;;
28766;SDS011;15921;52.034;20.650;2023-03-03T08:03:43;155.50;;;42.88;;
28766;SDS011;15921;52.034;20.650;2023-03-03T08:06:30;138.50;;;40.97;;
28766;SDS011;15921;52.034;20.650;2023-03-03T08:11:41;147.88;;;43.78;;
28766;SDS011;15921;52.034;20.650;2023-03-03T08:14:15;139.80;;;41.45;;
28766;SDS011;15921;52.034;20.650;2023-03-03T08:16:50;159.75;;;43.88;;
28766;SDS011;15921;52.034;20.650;2023-03-03T08:19:16;140.85;;;42.78;;
28766;SDS011;15921;52.034;20.650;2023-03-03T08:21:42;148.93;;;41.88;;
28766;SDS011;15921;52.034;20.650;2023-03-03T08:24:08;142.85;;;42.72;;
28766;SDS011;15921;52.034;20.650;2023-03-03T08:26:34;142.57;;;41.25;;
28766;SDS011;15921;52.034;20.650;2023-03-03T08:28:59;146.23;;;42.88;;
28766;SDS011;15921;52.034;20.650;2023-03-03T08:31:25;136.98;;;42.85;;
28766;SDS011;15921;52.034;20.650;2023-03-03T08:33:51;138.60;;;41.60;;
28766;SDS011;15921;52.034;20.650;2023-03-03T08:36:17;138.73;;;41.80;;
28766;SDS011;15921;52.034;20.650;2023-03-03T08:38:43;139.05;;;40.85;;
28766;SDS011;15921;52.034;20.650;2023-03-03T08:41:09;130.30;;;39.83;;
28766;SDS011;15921;52.034;20.650;2023-03-03T08:43:35;133.87;;;41.77;;
28766;SDS011;15921;52.034;20.650;2023-03-03T08:46:01;124.22;;;40.05;;
28766;SDS011;15921;52.034;20.650;2023-03-03T08:48:29;114.03;;;36.75;;
28766;SDS011;15921;52.034;20.650;2023-03-03T08:50:55;122.25;;;39.42;;
28766;SDS011;15921;52.034;20.650;2023-03-03T08:53:21;120.93;;;38.65;;
28766;SDS011;15921;52.034;20.650;2023-03-03T08:55:47;116.50;;;38.60;;
28766;SDS011;15921;52.034;20.650;2023-03-03T08:58:13;116.53;;;38.67;;
28766;SDS011;15921;52.034;20.650;2023-03-03T09:00:40;110.55;;;37.28;;
28766;SDS011;15921;52.034;20.650;2023-03-03T09:03:06;116.47;;;38.47;;
28766;SDS011;15921;52.034;20.650;2023-03-03T09:05:33;129.90;;;39.70;;
28766;SDS011;15921;52.034;20.650;2023-03-03T09:08:00;105.05;;;35.90;;
28766;SDS011;15921;52.034;20.650;2023-03-03T09:10:27;111.32;;;37.67;;
28766;SDS011;15921;52.034;20.650;2023-03-03T09:12:59;104.65;;;37.15;;
28766;SDS011;15921;52.034;20.650;2023-03-03T09:15:32;108.30;;;34.10;;
28766;SDS011;15921;52.034;20.650;2023-03-03T09:18:04;104.47;;;36.05;;
28766;SDS011;15921;52.034;20.650;2023-03-03T09:20:44;104.28;;;34.33;;
28766;SDS011;15921;52.034;20.650;2023-03-03T09:25:45;100.47;;;35.35;;
28766;SDS011;15921;52.034;20.650;2023-03-03T09:30:52;111.15;;;36.55;;
28766;SDS011;15921;52.034;20.650;2023-03-03T09:33:27;105.80;;;35.90;;
28766;SDS011;15921;52.034;20.650;2023-03-03T09:36:29;108.55;;;35.97;;
28766;SDS011;15921;52.034;20.650;2023-03-03T09:39:09;116.20;;;37.63;;
28766;SDS011;15921;52.034;20.650;2023-03-03T09:50:43;89.15;;;29.40;;
28766;SDS011;15921;52.034;20.650;2023-03-03T09:58:12;100.15;;;33.08;;
28766;SDS011;15921;52.034;20.650;2023-03-03T10:20:35;106.47;;;35.85;;
28766;SDS011;15921;52.034;20.650;2023-03-03T10:40:33;94.43;;;32.65;;
28766;SDS011;15921;52.034;20.650;2023-03-03T10:48:34;87.50;;;30.88;;
28766;SDS011;15921;52.034;20.650;2023-03-03T10:57:15;91.72;;;27.77;;
28766;SDS011;15921;52.034;20.650;2023-03-03T11:11:26;98.82;;;32.33;;
28766;SDS011;15921;52.034;20.650;2023-03-03T11:27:05;99.07;;;31.55;;
28766;SDS011;15921;52.034;20.650;2023-03-03T11:33:09;99.22;;;33.60;;
28766;SDS011;15921;52.034;20.650;2023-03-03T11:35:50;116.60;;;35.35;;
28766;SDS011;15921;52.034;20.650;2023-03-03T11:43:49;106.32;;;37.97;;
28766;SDS011;15921;52.034;20.650;2023-03-03T11:46:21;105.78;;;35.40;;
28766;SDS011;15921;52.034;20.650;2023-03-03T11:49:04;101.65;;;36.10;;
28766;SDS011;15921;52.034;20.650;2023-03-03T11:54:34;104.43;;;35.10;;
28766;SDS011;15921;52.034;20.650;2023-03-03T12:02:29;110.40;;;38.35;;
28766;SDS011;15921;52.034;20.650;2023-03-03T12:05:16;120.25;;;38.03;;
28766;SDS011;15921;52.034;20.650;2023-03-03T12:07:56;119.40;;;38.25;;
28766;SDS011;15921;52.034;20.650;2023-03-03T12:27:23;101.95;;;34.45;;
28766;SDS011;15921;52.034;20.650;2023-03-03T12:38:57;100.35;;;33.33;;
28766;SDS011;15921;52.034;20.650;2023-03-03T12:41:45;98.57;;;32.00;;
28766;SDS011;15921;52.034;20.650;2023-03-03T12:44:25;98.97;;;33.88;;
28766;SDS011;15921;52.034;20.650;2023-03-03T12:52:20;102.93;;;35.60;;
28766;SDS011;15921;52.034;20.650;2023-03-03T12:57:28;120.70;;;39.40;;
28766;SDS011;15921;52.034;20.650;2023-03-03T13:08:11;93.10;;;33.45;;
28766;SDS011;15921;52.034;20.650;2023-03-03T13:16:44;88.68;;;30.10;;
28766;SDS011;15921;52.034;20.650;2023-03-03T13:19:22;80.10;;;28.35;;
28766;SDS011;15921;52.034;20.650;2023-03-03T13:22:40;96.18;;;31.98;;
28766;SDS011;15921;52.034;20.650;2023-03-03T13:27:20;91.80;;;29.65;;
28766;SDS011;15921;52.034;20.650;2023-03-03T13:29:57;80.53;;;30.20;;
28766;SDS011;15921;52.034;20.650;2023-03-03T13:35:04;88.75;;;30.10;;
28766;SDS011;15921;52.034;20.650;2023-03-03T13:37:40;95.05;;;32.65;;
28766;SDS011;15921;52.034;20.650;2023-03-03T13:42:38;78.43;;;29.40;;
28766;SDS011;15921;52.034;20.650;2023-03-03T13:47:49;88.13;;;30.77;;
28766;SDS011;15921;52.034;20.650;2023-03-03T13:53:16;87.28;;;30.40;;
28766;SDS011;15921;52.034;20.650;2023-03-03T13:56:07;84.18;;;29.05;;
28766;SDS011;15921;52.034;20.650;2023-03-03T14:01:44;75.68;;;27.58;;
28766;SDS011;15921;52.034;20.650;2023-03-03T14:07:03;85.90;;;26.40;;
28766;SDS011;15921;52.034;20.650;2023-03-03T14:18:03;81.60;;;28.88;;
28766;SDS011;15921;52.034;20.650;2023-03-03T14:20:51;93.95;;;32.42;;
28766;SDS011;15921;52.034;20.650;2023-03-03T14:25:49;81.53;;;29.45;;
28766;SDS011;15921;52.034;20.650;2023-03-03T14:28:22;79.85;;;28.75;;
28766;SDS011;15921;52.034;20.650;2023-03-03T14:30:52;79.90;;;27.50;;
28766;SDS011;15921;52.034;20.650;2023-03-03T14:33:25;70.60;;;26.10;;
28766;SDS011;15921;52.034;20.650;2023-03-03T14:38:25;88.88;;;29.42;;
28766;SDS011;15921;52.034;20.650;2023-03-03T14:41:04;83.43;;;28.55;;
28766;SDS011;15921;52.034;20.650;2023-03-03T14:43:37;81.22;;;30.10;;
28766;SDS011;15921;52.034;20.650;2023-03-03T14:48:58;76.60;;;28.67;;
28766;SDS011;15921;52.034;20.650;2023-03-03T14:51:26;72.60;;;27.55;;
28766;SDS011;15921;52.034;20.650;2023-03-03T14:53:56;75.35;;;29.38;;
28766;SDS011;15921;52.034;20.650;2023-03-03T14:58:49;88.57;;;30.20;;
28766;SDS011;15921;52.034;20.650;2023-03-03T15:01:34;67.18;;;27.23;;
28766;SDS011;15921;52.034;20.650;2023-03-03T15:06:36;69.55;;;24.55;;
28766;SDS011;15921;52.034;20.650;2023-03-03T15:09:27;66.95;;;25.25;;
28766;SDS011;15921;52.034;20.650;2023-03-03T15:12:16;66.53;;;24.73;;
28766;SDS011;15921;52.034;20.650;2023-03-03T15:14:46;64.30;;;25.00;;
28766;SDS011;15921;52.034;20.650;2023-03-03T15:19:43;63.97;;;25.98;;
28766;SDS011;15921;52.034;20.650;2023-03-03T15:22:31;57.65;;;23.83;;
28766;SDS011;15921;52.034;20.650;2023-03-03T15:33:45;64.37;;;24.37;;
28766;SDS011;15921;52.034;20.650;2023-03-03T15:41:33;64.43;;;26.30;;
28766;SDS011;15921;52.034;20.650;2023-03-03T15:44:11;62.28;;;24.88;;
28766;SDS011;15921;52.034;20.650;2023-03-03T16:03:15;69.32;;;25.55;;
28766;SDS011;15921;52.034;20.650;2023-03-03T16:06:02;77.75;;;27.58;;
28766;SDS011;15921;52.034;20.650;2023-03-03T16:08:39;77.22;;;28.27;;
28766;SDS011;15921;52.034;20.650;2023-03-03T16:11:20;76.30;;;27.63;;
28766;SDS011;15921;52.034;20.650;2023-03-03T16:14:21;69.28;;;27.05;;
28766;SDS011;15921;52.034;20.650;2023-03-03T16:16:57;72.72;;;27.15;;
28766;SDS011;15921;52.034;20.650;2023-03-03T16:19:37;67.85;;;25.60;;
28766;SDS011;15921;52.034;20.650;2023-03-03T16:22:23;63.65;;;24.85;;
28766;SDS011;15921;52.034;20.650;2023-03-03T16:38:23;89.60;;;32.43;;
28766;SDS011;15921;52.034;20.650;2023-03-03T16:40:56;84.15;;;30.52;;
28766;SDS011;15921;52.034;20.650;2023-03-03T16:43:26;81.40;;;30.77;;
28766;SDS011;15921;52.034;20.650;2023-03-03T16:46:06;73.43;;;28.48;;
28766;SDS011;15921;52.034;20.650;2023-03-03T16:49:32;75.15;;;27.30;;
28766;SDS011;15921;52.034;20.650;2023-03-03T16:54:41;61.85;;;24.98;;
28766;SDS011;15921;52.034;20.650;2023-03-03T17:02:48;67.18;;;24.52;;
28766;SDS011;15921;52.034;20.650;2023-03-03T17:05:50;66.07;;;24.75;;
28766;SDS011;15921;52.034;20.650;2023-03-03T17:13:33;60.15;;;22.67;;
28766;SDS011;15921;52.034;20.650;2023-03-03T17:19:22;65.75;;;23.80;;
28766;SDS011;15921;52.034;20.650;2023-03-03T17:27:52;60.65;;;25.00;;
28766;SDS011;15921;52.034;20.650;2023-03-03T17:44:12;71.13;;;26.63;;
28766;SDS011;15921;52.034;20.650;2023-03-03T17:46:48;64.43;;;25.63;;
28766;SDS011;15921;52.034;20.650;2023-03-03T17:49:35;71.10;;;27.30;;
28766;SDS011;15921;52.034;20.650;2023-03-03T17:57:50;75.07;;;28.25;;
28766;SDS011;15921;52.034;20.650;2023-03-03T18:23:22;70.93;;;26.98;;
28766;SDS011;15921;52.034;20.650;2023-03-03T18:25:56;69.78;;;26.45;;
28766;SDS011;15921;52.034;20.650;2023-03-03T18:28:46;74.22;;;27.42;;
28766;SDS011;15921;52.034;20.650;2023-03-03T18:31:18;70.95;;;26.17;;
28766;SDS011;15921;52.034;20.650;2023-03-03T18:34:25;72.95;;;26.85;;
28766;SDS011;15921;52.034;20.650;2023-03-03T18:42:11;61.83;;;26.27;;
28766;SDS011;15921;52.034;20.650;2023-03-03T18:44:54;77.22;;;26.70;;
28766;SDS011;15921;52.034;20.650;2023-03-03T18:47:52;68.03;;;27.02;;
28766;SDS011;15921;52.034;20.650;2023-03-03T18:55:52;84.78;;;29.20;;
28766;SDS011;15921;52.034;20.650;2023-03-03T19:06:11;67.68;;;27.38;;
28766;SDS011;15921;52.034;20.650;2023-03-03T19:09:17;70.30;;;28.17;;
28766;SDS011;15921;52.034;20.650;2023-03-03T19:11:48;79.57;;;28.85;;
28766;SDS011;15921;52.034;20.650;2023-03-03T19:16:58;69.30;;;27.65;;
28766;SDS011;15921;52.034;20.650;2023-03-03T19:22:44;72.55;;;27.65;;
28766;SDS011;15921;52.034;20.650;2023-03-03T19:25:28;74.53;;;27.15;;
28766;SDS011;15921;52.034;20.650;2023-03-03T19:47:36;70.90;;;26.30;;
28766;SDS011;15921;52.034;20.650;2023-03-03T19:50:13;66.72;;;24.45;;
28766;SDS011;15921;52.034;20.650;2023-03-03T20:04:02;75.40;;;25.83;;
28766;SDS011;15921;52.034;20.650;2023-03-03T20:06:54;68.85;;;27.23;;
28766;SDS011;15921;52.034;20.650;2023-03-03T20:14:54;70.53;;;25.92;;
28766;SDS011;15921;52.034;20.650;2023-03-03T20:17:42;68.32;;;24.52;;
28766;SDS011;15921;52.034;20.650;2023-03-03T20:23:19;70.07;;;25.33;;
28766;SDS011;15921;52.034;20.650;2023-03-03T20:25:54;71.63;;;26.40;;
28766;SDS011;15921;52.034;20.650;2023-03-03T20:31:05;70.35;;;25.85;;
28766;SDS011;15921;52.034;20.650;2023-03-03T20:33:37;77.57;;;27.92;;
28766;SDS011;15921;52.034;20.650;2023-03-03T21:00:51;70.07;;;27.80;;
28766;SDS011;15921;52.034;20.650;2023-03-03T21:08:57;72.28;;;27.30;;
28766;SDS011;15921;52.034;20.650;2023-03-03T21:11:19;70.68;;;26.95;;
28766;SDS011;15921;52.034;20.650;2023-03-03T21:13:46;64.55;;;25.90;;
28766;SDS011;15921;52.034;20.650;2023-03-03T21:18:59;70.32;;;27.55;;
28766;SDS011;15921;52.034;20.650;2023-03-03T21:21:28;71.30;;;27.08;;
28766;SDS011;15921;52.034;20.650;2023-03-03T21:24:01;73.25;;;26.60;;
28766;SDS011;15921;52.034;20.650;2023-03-03T21:32:00;70.78;;;25.80;;
28766;SDS011;15921;52.034;20.650;2023-03-03T21:34:37;68.18;;;25.70;;
28766;SDS011;15921;52.034;20.650;2023-03-03T21:37:05;74.90;;;27.63;;
28766;SDS011;15921;52.034;20.650;2023-03-03T21:40:09;74.72;;;27.10;;
28766;SDS011;15921;52.034;20.650;2023-03-03T21:42:42;73.95;;;27.85;;
28766;SDS011;15921;52.034;20.650;2023-03-03T21:45:10;68.93;;;27.73;;
28766;SDS011;15921;52.034;20.650;2023-03-03T21:47:37;78.18;;;27.98;;
28766;SDS011;15921;52.034;20.650;2023-03-03T21:50:02;76.97;;;28.33;;
28766;SDS011;15921;52.034;20.650;2023-03-03T21:52:28;69.43;;;27.85;;
28766;SDS011;15921;52.034;20.650;2023-03-03T21:54:54;69.35;;;27.50;;
28766;SDS011;15921;52.034;20.650;2023-03-03T21:57:20;69.35;;;25.77;;
28766;SDS011;15921;52.034;20.650;2023-03-03T21:59:46;64.20;;;26.10;;
28766;SDS011;15921;52.034;20.650;2023-03-03T22:02:11;67.25;;;25.20;;
28766;SDS011;15921;52.034;20.650;2023-03-03T22:04:37;69.18;;;25.77;;
28766;SDS011;15921;52.034;20.650;2023-03-03T22:07:03;64.68;;;26.20;;